createdAt,value
2018-02-08T00:02:27.610Z,95500
2018-02-08T00:05:02.495Z,95489
2018-02-08T00:07:38.492Z,95498
2018-02-08T00:10:14.303Z,95493
2018-02-08T00:12:49.184Z,95496
2018-02-08T00:15:24.074Z,95491
2018-02-08T00:17:58.950Z,95501
2018-02-08T00:20:33.952Z,95502
2018-02-08T00:23:08.967Z,95500
2018-02-08T00:25:43.933Z,95502
2018-02-08T00:28:18.941Z,95499
2018-02-08T00:30:53.896Z,95499
2018-02-08T00:33:28.842Z,95501
2018-02-08T00:36:04.676Z,95499
2018-02-08T00:38:39.528Z,95493
2018-02-08T00:41:14.359Z,95498
2018-02-08T00:43:50.330Z,95494
2018-02-08T00:46:25.175Z,95497
2018-02-08T00:49:00.077Z,95498
2018-02-08T00:51:34.894Z,95502
2018-02-08T00:54:09.802Z,95507
2018-02-08T00:56:44.671Z,95499
2018-02-08T00:59:19.511Z,95507
2018-02-08T01:01:54.402Z,95512
2018-02-08T01:04:30.157Z,95503
2018-02-08T01:07:05.023Z,95512
2018-02-08T01:09:40.625Z,95508
2018-02-08T01:12:15.683Z,95513
2018-02-08T01:14:50.667Z,95517
2018-02-08T01:17:25.642Z,95517
2018-02-08T01:20:00.532Z,95506
2018-02-08T01:22:35.406Z,95503
2018-02-08T01:25:10.398Z,95511
2018-02-08T01:27:45.273Z,95513
2018-02-08T01:30:21.433Z,95511
2018-02-08T01:32:56.323Z,95515
2018-02-08T01:35:31.274Z,95523
2018-02-08T01:38:06.252Z,95520
2018-02-08T01:40:41.860Z,95518
2018-02-08T01:43:16.719Z,95515
2018-02-08T01:45:51.551Z,95510
2018-02-08T01:48:26.545Z,95506
2018-02-08T01:51:01.522Z,95507
2018-02-08T01:53:36.572Z,95516
2018-02-08T01:56:11.394Z,95506
2018-02-08T01:58:47.130Z,95517
2018-02-08T02:01:22.016Z,95513
2018-02-08T02:03:57.044Z,95510
2018-02-08T02:06:31.866Z,95509
2018-02-08T02:09:07.487Z,95512
2018-02-08T02:11:36.502Z,95507
2018-02-08T02:14:05.659Z,95520
2018-02-08T02:16:35.447Z,95513
2018-02-08T02:19:04.495Z,95516
2018-02-08T02:21:33.515Z,95510
2018-02-08T02:24:02.583Z,95505
2018-02-08T02:26:31.640Z,95505
2018-02-08T02:29:01.475Z,95512
2018-02-08T02:31:31.358Z,95512
2018-02-08T02:34:00.410Z,95516
2018-02-08T02:36:29.432Z,95511
2018-02-08T02:38:58.487Z,95519
2018-02-08T02:41:27.502Z,95526
2018-02-08T02:43:56.606Z,95518
2018-02-08T02:46:29.939Z,95525
2018-02-08T02:48:59.304Z,95537
2018-02-08T02:51:28.322Z,95531
2018-02-08T02:53:57.335Z,95528
2018-02-08T02:56:26.386Z,95531
2018-02-08T02:58:55.476Z,95533
2018-02-08T03:01:24.550Z,95522
2018-02-08T03:03:53.542Z,95526
2018-02-08T03:06:22.600Z,95531
2018-02-08T03:08:52.383Z,95523
2018-02-08T03:11:21.435Z,95526
2018-02-08T03:13:50.459Z,95531
2018-02-08T03:16:19.539Z,95531
2018-02-08T03:18:48.559Z,95531
2018-02-08T03:21:17.586Z,95529
2018-02-08T03:23:46.646Z,95536
2018-02-08T03:26:15.653Z,95537
2018-02-08T03:28:44.757Z,95532
2018-02-08T03:31:16.598Z,95540
2018-02-08T03:33:46.419Z,95544
2018-02-08T03:36:15.461Z,95538
2018-02-08T03:38:45.450Z,95542
2018-02-08T03:41:15.330Z,95536
2018-02-08T03:43:44.365Z,95533
2018-02-08T03:46:14.178Z,95536
2018-02-08T03:48:43.949Z,95550
2018-02-08T03:51:12.976Z,95539
2018-02-08T03:53:42.799Z,95556
2018-02-08T03:56:12.602Z,95551
2018-02-08T03:58:42.387Z,95558
2018-02-08T04:01:11.455Z,95559
2018-02-08T04:03:40.475Z,95555
2018-02-08T04:06:09.491Z,95556
2018-02-08T04:08:39.298Z,95566
2018-02-08T04:11:08.321Z,95565
2018-02-08T04:13:37.375Z,95563
2018-02-08T04:16:06.406Z,95563
2018-02-08T04:18:36.214Z,95571
2018-02-08T04:21:06.031Z,95569
2018-02-08T04:23:35.065Z,95571
2018-02-08T04:26:04.431Z,95573
2018-02-08T04:28:35.118Z,95570
2018-02-08T04:31:05.078Z,95570
2018-02-08T04:33:34.114Z,95576
2018-02-08T04:36:03.171Z,95572
2018-02-08T04:38:49.906Z,95578
2018-02-08T04:41:36.555Z,95577
2018-02-08T04:44:29.682Z,95581
2018-02-08T04:47:16.355Z,95587
2018-02-08T04:49:45.370Z,95582
2018-02-08T04:52:14.399Z,95599
2018-02-08T04:54:43.437Z,95590
2018-02-08T04:57:12.490Z,95591
2018-02-08T04:59:42.296Z,95591
2018-02-08T05:02:12.220Z,95591
2018-02-08T05:04:41.239Z,95598
2018-02-08T05:07:10.287Z,95593
2018-02-08T05:09:39.335Z,95594
2018-02-08T05:12:08.391Z,95599
2018-02-08T05:14:37.463Z,95598
2018-02-08T05:17:06.482Z,95604
2018-02-08T05:19:35.551Z,95609
2018-02-08T05:22:04.608Z,95610
2018-02-08T05:24:33.672Z,95607
2018-02-08T05:27:02.694Z,95605
2018-02-08T05:29:31.763Z,95613
2018-02-08T05:32:00.775Z,95617
2018-02-08T05:34:29.818Z,95620
2018-02-08T05:36:58.841Z,95627
2018-02-08T05:39:28.754Z,95623
2018-02-08T05:41:57.774Z,95629
2018-02-08T05:44:26.852Z,95630
2018-02-08T05:46:55.918Z,95635
2018-02-08T05:49:25.012Z,95635
2018-02-08T05:51:54.069Z,95630
2018-02-08T05:54:23.119Z,95635
2018-02-08T05:56:52.140Z,95637
2018-02-08T05:59:21.182Z,95640
2018-02-08T06:01:50.248Z,95650
2018-02-08T06:04:19.373Z,95652
2018-02-08T06:06:48.412Z,95654
2018-02-08T06:09:18.247Z,95646
2018-02-08T06:11:48.231Z,95648
2018-02-08T06:14:18.060Z,95656
2018-02-08T06:16:47.069Z,95665
2018-02-08T06:19:16.123Z,95668
2018-02-08T06:21:45.145Z,95655
2018-02-08T06:24:14.198Z,95664
2018-02-08T06:26:43.997Z,95669
2018-02-08T06:29:13.037Z,95661
2018-02-08T06:31:42.064Z,95661
2018-02-08T06:34:11.102Z,95668
2018-02-08T06:36:40.965Z,95669
2018-02-08T06:39:10.013Z,95673
2018-02-08T06:41:39.803Z,95681
2018-02-08T06:44:12.747Z,95700
2018-02-08T06:46:41.765Z,95680
2018-02-08T06:49:11.779Z,95684
2018-02-08T06:51:40.857Z,95680
2018-02-08T06:54:09.877Z,95688
2018-02-08T06:56:38.922Z,95691
2018-02-08T06:59:09.003Z,95694
2018-02-08T07:01:38.031Z,95698
2018-02-08T07:04:07.086Z,95701
2018-02-08T07:06:36.107Z,95711
2018-02-08T07:09:05.170Z,95717
2018-02-08T07:11:34.210Z,95717
2018-02-08T07:14:06.164Z,95726
2018-02-08T07:16:35.992Z,95720
2018-02-08T07:19:05.011Z,95723
2018-02-08T07:21:36.579Z,95722
2018-02-08T07:24:05.731Z,95725
2018-02-08T07:26:34.807Z,95726
2018-02-08T07:29:10.635Z,95727
2018-02-08T07:31:39.691Z,95723
2018-02-08T07:34:08.760Z,95735
2018-02-08T07:36:38.554Z,95723
2018-02-08T07:39:08.383Z,95729
2018-02-08T07:41:38.541Z,95736
2018-02-08T07:44:07.563Z,95730
2018-02-08T07:46:36.589Z,95733
2018-02-08T07:49:06.435Z,95725
2018-02-08T07:51:35.455Z,95724
2018-02-08T07:54:07.886Z,95728
2018-02-08T07:56:36.956Z,95722
2018-02-08T07:59:06.790Z,95718
2018-02-08T08:01:35.862Z,95715
2018-02-08T08:04:05.690Z,95723
2018-02-08T08:06:35.473Z,95722
2018-02-08T08:09:04.603Z,95722
2018-02-08T08:11:33.656Z,95714
2018-02-08T08:14:03.466Z,95724
2018-02-08T08:16:32.538Z,95708
2018-02-08T08:19:01.568Z,95706
2018-02-08T08:21:30.652Z,95762
2018-02-08T08:23:59.694Z,95705
2018-02-08T08:26:28.775Z,95706
2018-02-08T08:28:58.599Z,95711
2018-02-08T08:31:27.614Z,95707
2018-02-08T08:33:56.823Z,95703
2018-02-08T08:36:25.879Z,95338
2018-02-08T08:38:55.707Z,95708
2018-02-08T08:41:25.008Z,95711
2018-02-08T08:43:54.039Z,95714
2018-02-08T08:46:23.851Z,95714
2018-02-08T08:48:52.930Z,95714
2018-02-08T08:51:21.987Z,95720
2018-02-08T08:53:51.076Z,95715
2018-02-08T08:56:20.900Z,95720
2018-02-08T08:58:49.932Z,95725
2018-02-08T09:01:18.983Z,95719
2018-02-08T09:03:48.111Z,95732
2018-02-08T09:06:17.267Z,95729
2018-02-08T09:08:46.299Z,95736
2018-02-08T09:11:15.305Z,95729
2018-02-08T09:13:44.475Z,95740
2018-02-08T09:16:13.485Z,95730
2018-02-08T09:18:42.600Z,95735
2018-02-08T09:21:11.714Z,95736
2018-02-08T09:23:41.555Z,95731
2018-02-08T09:26:10.573Z,95734
2018-02-08T09:28:39.642Z,95742
2018-02-08T09:31:08.664Z,95735
2018-02-08T09:33:37.694Z,95731
2018-02-08T09:36:06.734Z,95728
2018-02-08T09:38:35.757Z,95742
2018-02-08T09:41:04.831Z,95732
2018-02-08T09:43:33.882Z,95740
2018-02-08T09:46:03.680Z,95745
2018-02-08T09:48:32.779Z,95745
2018-02-08T09:51:02.583Z,95739
2018-02-08T09:53:32.418Z,95745
2018-02-08T09:56:01.500Z,95748
2018-02-08T09:58:31.304Z,95748
2018-02-08T10:01:00.355Z,95750
2018-02-08T10:03:29.399Z,95757
2018-02-08T10:05:58.477Z,95761
2018-02-08T10:08:27.529Z,95754
2018-02-08T10:10:56.551Z,95769
2018-02-08T10:13:25.657Z,95763
2018-02-08T10:15:54.675Z,95764
2018-02-08T10:18:24.499Z,95761
2018-02-08T10:20:54.278Z,95764
2018-02-08T10:23:24.251Z,95767
2018-02-08T10:25:53.298Z,95759
2018-02-08T10:28:22.353Z,95770
2018-02-08T10:30:51.398Z,95775
2018-02-08T10:33:21.219Z,95771
2018-02-08T10:35:51.074Z,95770
2018-02-08T10:38:20.157Z,95781
2018-02-08T10:40:49.235Z,95778
2018-02-08T10:43:18.404Z,95769
2018-02-08T10:45:48.200Z,95769
2018-02-08T10:48:17.277Z,95770
2018-02-08T10:50:46.376Z,95760
2018-02-08T10:53:15.478Z,95775
2018-02-08T10:55:44.543Z,95772
2018-02-08T10:58:13.646Z,95768
2018-02-08T11:00:43.393Z,95775
2018-02-08T11:03:12.451Z,95772
2018-02-08T11:05:41.484Z,95770
2018-02-08T11:08:10.584Z,95765
2018-02-08T11:10:39.604Z,95769
2018-02-08T11:13:08.651Z,95773
2018-02-08T11:15:37.810Z,95786
2018-02-08T11:18:06.843Z,95752
2018-02-08T11:20:35.878Z,95773
2018-02-08T11:23:04.961Z,95766
2018-02-08T11:25:33.987Z,95753
2018-02-08T11:28:03.024Z,95761
2018-02-08T11:30:32.082Z,95760
2018-02-08T11:33:01.105Z,95742
2018-02-08T11:35:30.168Z,95752
2018-02-08T11:37:59.195Z,95756
2018-02-08T11:40:28.289Z,95759
2018-02-08T11:42:57.319Z,95779
2018-02-08T11:45:26.354Z,95755
2018-02-08T11:47:55.445Z,95744
2018-02-08T11:50:24.477Z,95749
2018-02-08T11:52:53.592Z,95747
2018-02-08T11:55:23.407Z,95748
2018-02-08T11:57:52.436Z,95744
2018-02-08T12:00:22.478Z,95747
2018-02-08T12:02:51.619Z,95742
2018-02-08T12:05:21.447Z,95739
2018-02-08T12:07:50.492Z,95735
2018-02-08T12:10:19.611Z,95736
2018-02-08T12:12:49.407Z,95735
2018-02-08T12:15:18.483Z,95730
2018-02-08T12:17:47.527Z,95732
2018-02-08T12:20:16.582Z,95736
2018-02-08T12:22:45.619Z,95730
2018-02-08T12:25:14.723Z,95723
2018-02-08T12:27:43.764Z,95726
2018-02-08T12:30:12.960Z,95714
2018-02-08T12:32:41.992Z,95716
2018-02-08T12:35:11.060Z,95710
2018-02-08T12:37:40.096Z,95706
2018-02-08T12:40:09.164Z,95701
2018-02-08T12:42:38.972Z,95696
2018-02-08T12:45:08.829Z,95700
2018-02-08T12:47:37.860Z,95692
2018-02-08T12:50:06.900Z,95686
2018-02-08T12:52:35.999Z,95686
2018-02-08T12:55:05.106Z,95693
2018-02-08T12:57:34.157Z,95689
2018-02-08T13:00:03.950Z,95696
2018-02-08T13:02:33.021Z,95695
2018-02-08T13:05:02.116Z,95692
2018-02-08T13:07:31.193Z,95685
2018-02-08T13:10:00.251Z,95693
2018-02-08T13:12:30.055Z,95690
2018-02-08T13:14:59.890Z,95692
2018-02-08T13:17:28.929Z,95683
2018-02-08T13:19:58.003Z,95689
2018-02-08T13:22:27.041Z,95692
2018-02-08T13:24:56.117Z,95693
2018-02-08T13:27:25.567Z,95690
2018-02-08T13:29:54.586Z,95692
2018-02-08T13:32:23.654Z,95693
2018-02-08T13:34:52.749Z,95701
2018-02-08T13:37:21.819Z,95706
2018-02-08T13:40:09.387Z,95705
2018-02-08T13:42:38.776Z,95709
2018-02-08T13:45:07.836Z,95714
2018-02-08T13:47:46.809Z,95720
2018-02-08T13:50:18.692Z,95719
2018-02-08T13:52:51.240Z,95718
2018-02-08T13:55:20.764Z,95724
2018-02-08T14:01:09.045Z,95733
2018-02-08T14:03:38.163Z,95735
2018-02-08T14:06:07.195Z,95747
2018-02-08T14:08:36.323Z,95742
2018-02-08T14:11:05.367Z,95743
2018-02-08T14:13:35.166Z,95738
2018-02-08T14:16:05.040Z,95741
2018-02-08T14:18:34.086Z,95739
2018-02-08T14:21:03.887Z,95740
2018-02-08T14:23:33.003Z,95740
2018-02-08T14:26:02.015Z,95741
2018-02-08T14:28:31.071Z,95733
2018-02-08T14:31:00.890Z,95748
2018-02-08T14:33:30.691Z,95747
2018-02-08T14:36:00.511Z,95746
2018-02-08T14:38:30.298Z,95755
2018-02-08T14:40:59.385Z,95740
2018-02-08T14:43:28.457Z,95749
2018-02-08T14:45:57.486Z,95752
2018-02-08T14:48:26.559Z,95751
2018-02-08T14:50:55.587Z,95757
2018-02-08T14:53:25.393Z,95764
2018-02-08T14:55:54.491Z,95759
2018-02-08T14:58:23.524Z,95765
2018-02-08T15:00:52.551Z,95758
2018-02-08T15:03:21.612Z,95765
2018-02-08T15:05:50.635Z,95754
2018-02-08T15:08:19.691Z,95764
2018-02-08T15:10:48.824Z,95753
2018-02-08T15:13:17.914Z,95760
2018-02-08T15:15:46.943Z,95762
2018-02-08T15:18:16.036Z,95760
2018-02-08T15:20:45.054Z,95756
2018-02-08T15:23:14.839Z,95761
2018-02-08T15:25:43.897Z,95757
2018-02-08T15:28:12.913Z,95763
2018-02-08T15:30:41.976Z,95769
2018-02-08T15:33:11.021Z,95769
2018-02-08T15:35:40.043Z,95773
2018-02-08T15:38:09.090Z,95773
2018-02-08T15:40:38.120Z,95771
2018-02-08T15:43:07.946Z,95765
2018-02-08T15:45:36.981Z,95775
2018-02-08T15:48:06.013Z,95772
2018-02-08T15:50:35.854Z,95772
2018-02-08T15:53:04.892Z,95768
2018-02-08T15:55:33.902Z,95835
2018-02-08T15:58:02.973Z,95772
2018-02-08T16:00:32.119Z,95772
2018-02-08T16:03:11.862Z,95777
2018-02-08T16:05:40.878Z,95775
2018-02-08T16:08:09.930Z,95776
2018-02-08T16:10:39.011Z,95776
2018-02-08T16:13:08.863Z,95783
2018-02-08T16:15:37.904Z,95774
2018-02-08T16:18:06.945Z,95778
2018-02-08T16:20:36.720Z,95778
2018-02-08T16:23:05.870Z,95781
2018-02-08T16:25:34.918Z,95777
2018-02-08T16:28:04.768Z,95775
2018-02-08T16:30:34.911Z,95787
2018-02-08T16:33:10.343Z,95786
2018-02-08T16:35:39.409Z,95792
2018-02-08T16:38:08.475Z,95789
2018-02-08T16:40:37.541Z,95785
2018-02-08T16:43:08.691Z,95790
2018-02-08T16:45:37.751Z,95798
2018-02-08T16:48:07.544Z,95800
2018-02-08T16:50:36.555Z,95790
2018-02-08T16:53:06.978Z,95793
2018-02-08T16:55:36.031Z,95794
2018-02-08T16:58:05.068Z,95800
2018-02-08T17:00:34.132Z,95796
2018-02-08T17:03:03.579Z,95804
2018-02-08T17:05:34.513Z,95804
2018-02-08T17:08:09.630Z,95805
2018-02-08T17:10:44.831Z,95798
2018-02-08T17:13:19.743Z,95816
2018-02-08T17:15:54.999Z,95810
2018-02-08T17:18:29.883Z,95810
2018-02-08T17:21:04.872Z,95808
2018-02-08T17:23:40.044Z,95806
2018-02-08T17:26:15.119Z,95809
2018-02-08T17:28:50.141Z,95821
2018-02-08T17:31:25.509Z,95816
2018-02-08T17:34:00.660Z,95811
2018-02-08T17:36:35.855Z,95825
2018-02-08T17:39:10.848Z,95817
2018-02-08T17:41:46.005Z,95826
2018-02-08T17:44:26.087Z,95819
2018-02-08T17:47:01.054Z,95823
2018-02-08T17:49:36.037Z,95828
2018-02-08T17:52:11.043Z,95820
2018-02-08T17:54:46.821Z,95827
2018-02-08T17:57:21.888Z,95821
2018-02-08T17:59:57.014Z,95828
2018-02-08T18:02:31.970Z,95824
2018-02-08T18:05:06.900Z,95822
2018-02-08T18:07:41.979Z,95830
2018-02-08T18:10:16.909Z,95829
2018-02-08T18:12:53.906Z,95840
2018-02-08T18:15:28.769Z,95833
2018-02-08T18:18:04.564Z,95828
2018-02-08T18:20:39.450Z,95839
2018-02-08T18:23:14.485Z,95834
2018-02-08T18:25:50.108Z,95845
2018-02-08T18:28:25.283Z,95844
2018-02-08T18:31:00.905Z,95849
2018-02-08T18:33:35.774Z,95846
2018-02-08T18:36:10.671Z,95854
2018-02-08T18:38:45.595Z,95857
2018-02-08T18:41:22.439Z,95851
2018-02-08T18:43:57.748Z,95855
2018-02-08T18:46:32.626Z,95850
2018-02-08T18:49:08.687Z,95756
2018-02-08T18:51:43.614Z,95849
2018-02-08T18:54:18.496Z,95851
2018-02-08T18:56:53.494Z,95844
2018-02-08T18:59:29.286Z,95853
2018-02-08T19:02:05.010Z,95845
2018-02-08T19:04:42.085Z,95844
2018-02-08T19:07:16.928Z,95845
2018-02-08T19:09:52.627Z,95844
2018-02-08T19:12:27.701Z,95850
2018-02-08T19:15:02.753Z,95850
2018-02-08T19:17:38.550Z,95840
2018-02-08T19:20:13.418Z,95845
2018-02-08T19:22:49.357Z,95845
2018-02-08T19:25:24.239Z,95849
2018-02-08T19:27:59.134Z,95850
2018-02-08T19:30:33.985Z,95849
2018-02-08T19:33:09.676Z,95848
2018-02-08T19:35:44.617Z,95849
2018-02-08T19:38:19.611Z,95860
2018-02-08T19:40:54.510Z,95857
2018-02-08T19:43:29.583Z,95852
2018-02-08T19:46:06.340Z,95853
2018-02-08T19:48:44.807Z,95859
2018-02-08T19:51:21.724Z,95862
2018-02-08T19:53:57.672Z,95860
2018-02-08T19:56:32.614Z,95849
2018-02-08T19:59:07.466Z,95851
2018-02-08T20:01:42.468Z,95850
2018-02-08T20:04:17.725Z,95850
2018-02-08T20:06:53.910Z,95846
2018-02-08T20:09:28.978Z,95841
2018-02-08T20:12:03.898Z,95849
2018-02-08T20:14:38.875Z,95843
2018-02-08T20:17:14.757Z,95837
2018-02-08T20:19:49.726Z,95853
2018-02-08T20:22:25.536Z,95848
2018-02-08T20:25:00.575Z,95844
2018-02-08T20:27:38.961Z,95849
2018-02-08T20:30:17.814Z,95847
2018-02-08T20:32:52.888Z,95843
2018-02-08T20:35:28.524Z,95846
2018-02-08T20:38:05.156Z,95851
2018-02-08T20:40:40.110Z,95849
2018-02-08T20:43:31.565Z,95850
2018-02-08T20:46:10.917Z,95890
2018-02-08T20:48:47.991Z,95850
2018-02-08T20:51:23.002Z,95841
2018-02-08T20:53:57.935Z,95849
2018-02-08T20:56:32.909Z,95850
2018-02-08T20:59:08.771Z,95849
2018-02-08T21:01:44.371Z,95842
2018-02-08T21:04:20.412Z,95849
2018-02-08T21:06:55.274Z,95845
2018-02-08T21:09:30.371Z,95847
2018-02-08T21:12:05.217Z,95840
2018-02-08T21:14:40.224Z,95840
2018-02-08T21:17:15.064Z,95831
2018-02-08T21:19:49.937Z,95839
2018-02-08T21:22:24.798Z,95979
2018-02-08T21:24:59.701Z,95843
2018-02-08T21:27:34.523Z,95849
2018-02-08T21:30:10.343Z,95853
2018-02-08T21:32:45.264Z,95857
2018-02-08T21:35:20.144Z,95848
2018-02-08T21:37:55.029Z,95851
2018-02-08T21:40:30.097Z,95846
2018-02-08T21:43:05.339Z,95847
2018-02-08T21:45:41.212Z,95841
2018-02-08T21:48:16.048Z,95836
2018-02-08T21:50:51.080Z,95828
2018-02-08T21:53:26.055Z,95856
2018-02-08T21:56:01.060Z,95835
2018-02-08T21:58:35.947Z,95834
2018-02-08T22:01:10.836Z,95836
2018-02-08T22:03:45.680Z,95834
2018-02-08T22:06:20.709Z,95835
2018-02-08T22:08:55.675Z,95829
2018-02-08T22:11:31.822Z,95829
2018-02-08T22:14:06.838Z,95822
2018-02-08T22:16:41.911Z,95819
2018-02-08T22:19:16.769Z,95834
2018-02-08T22:21:51.708Z,95818
2018-02-08T22:24:26.702Z,95829
2018-02-08T22:27:01.983Z,95831
2018-02-08T22:29:36.922Z,95829
2018-02-08T22:32:11.958Z,95821
2018-02-08T22:34:46.924Z,95829
2018-02-08T22:37:21.789Z,95824
2018-02-08T22:39:57.412Z,95826
2018-02-08T22:42:33.205Z,95844
2018-02-08T22:45:08.053Z,95816
2018-02-08T22:47:43.148Z,95817
2018-02-08T22:50:18.151Z,95823
2018-02-08T22:52:53.080Z,95814
2018-02-08T22:55:28.177Z,95835
2018-02-08T22:58:03.134Z,95814
2018-02-08T23:00:38.045Z,95814
2018-02-08T23:03:13.087Z,95808
2018-02-08T23:05:47.979Z,95812
2018-02-08T23:08:23.738Z,95803
2018-02-08T23:10:58.643Z,95806
2018-02-08T23:13:33.475Z,95807
2018-02-08T23:16:08.475Z,95725
2018-02-08T23:18:43.342Z,95803
2018-02-08T23:21:18.233Z,95792
2018-02-08T23:23:54.066Z,95808
2018-02-08T23:26:28.923Z,95790
2018-02-08T23:29:03.770Z,95796
2018-02-08T23:31:38.673Z,95793
2018-02-08T23:34:13.562Z,95795
2018-02-08T23:36:48.468Z,95799
2018-02-08T23:39:23.442Z,95796
2018-02-08T23:41:59.137Z,95804
2018-02-08T23:44:34.091Z,95798
2018-02-08T23:47:08.967Z,95797
2018-02-08T23:49:44.556Z,95801
2018-02-08T23:52:19.474Z,95791
2018-02-08T23:54:54.327Z,95799
2018-02-08T23:57:29.428Z,95792
